ACT        NSW        VIC        QLD        SA        WA        TAS        NT        INFO        CALC            by VK5ZD

  Atmospheric Gas Attenuation - ITU Rec 676-11   --------------- db/100km ---------------
Station Date Time Temp RH % AH g/m3 Dew Point Wind Direction Speed kph Gust kph Barometer mB Rainfall Since 9am 24GHz 47GHz 76GHz 122GHz 134GHz 241GHz
Adelaide (West Terrace / Ngayirdapira) 21 18:20 14.6 64 8.01 7.9 24 33 1006.5 0 18.3 24.5 36.8 96.5 89.3 306.7
Adelaide Airport 21 18:20 14.9 62 7.9 7.7 33 39 1006.3 0 18.1 24.2 36.2 95.0 87.5 300.6
Andamooka 21 09:00 19 34 5.54 3 6 1013.1 0.1 12.9 20.1 26.5 69.0 56.5 192.1
Cape Borda 21 18:20 12 87 9.27 9.9 39 46 1003.8 1.8 21.1 27.2 43.1 113.3 109.1 375.6
Cape Jaffa 21 18:20 13 82 9.3 10 26 33 1013.1 0 21.1 27.3 43.1 113.2 108.9 375.0
Cape Willoughby 21 18:20 13.3 72 8.32 8.3 33 41 1013.1 0 19.0 25.6 38.9 102.1 95.3 327.6
Ceduna 21 18:20 15.5 66 8.72 9.2 39 48 1012.7 0 19.8 25.6 39.4 103.4 97.8 336.6
Clare 21 18:20 10.9 88 8.75 9 19 35 1008.4 2.2 20.1 26.8 41.7 109.5 103.8 357.1
Cleve 21 09:00 15 39 5 1.1 33 1005.5 0 11.9 19.9 25.7 66.9 52.8 178.8
Cleve Airport 21 18:20 13.1 78 8.9 9.4 28 39 1007.7 0 20.3 26.4 41.1 108.0 102.8 354.0
Coober Pedy Airport 21 18:20 21 23 4.21 -0.9 28 33 1013.3 0 10.1 17.9 21.7 56.2 41.3 138.9
Coonawarra 21 18:20 13.6 60 7.06 6.1 28 33 1002.3 0 16.3 23.1 33.4 87.6 78.1 267.4
Cultana (Defence) 21 18:20 18.3 44 6.88 5.8 46 52 1013.1 0 15.7 22.1 31.3 81.9 72.2 247.2
Cummins Airport 21 18:20 12 95 10.13 11.2 26 39 1007.3 1.8 23.0 28.8 46.9 123.5 121.4 418.9
Edinburgh 21 18:20 15.1 67 8.64 9 32 37 1006.9 0.2 19.6 25.3 39.0 102.5 96.8 333.0
Edithburgh 21 18:20 12.8 100 11.2 12.8 30 37 1013.1 0.6 25.2 30.6 51.4 135.4 136.2 470.3
Elliston 21 09:00 16.5 66 9.27 10.1 52 1006.1 0 20.9 25.9 40.8 107.2 103.1 355.3
Ernabella/Pukatja 21 18:30 20.2 13 2.27 -9.1 20 26 1013.5 0 6.1 15.8 16.2 41.4 22.7 73.2
Eudunda 21 09:00 13.4 36 4.19 -1.3 17 1006.9 2 10.2 19.2 23.5 60.9 44.8 150.5
Hawker 21 09:00 16.1 30 4.11 -1.4 15 1008.1 0 10.0 18.6 22.5 58.3 42.6 142.8
Hindmarsh Island 21 18:20 13.4 69 8.02 7.8 24 33 1004.6 0.8 18.4 24.8 37.3 97.9 90.6 311.3
Kadina 21 18:20 15.4 65 8.54 8.9 33 43 1007.9 0 19.4 25.1 38.5 101.2 95.2 327.5
Keith 21 09:00 14 63 7.6 7.1 17 1005.7 8 17.5 24.0 35.5 93.0 84.7 290.5
Keith West 21 18:20 12.6 63 6.97 5.9 15 17 1013.1 0 16.2 23.6 34.0 88.8 78.7 269.3
Kimba 21 09:00 13.8 45 5.36 2.1 0 1013.1 0 12.7 21.0 27.6 71.8 58.1 197.3
Kingscote 21 18:20 12.6 83 9.18 9.8 17 19 1003.9 2 20.9 26.8 42.4 111.4 107.0 368.5
Kuitpo 21 18:20 10.6 80 7.81 7.3 32 39 1003.3 0.2 18.1 25.2 37.7 99.1 91.0 312.4
Kyancutta 21 09:00 16.4 42 5.86 3.4 24 1006.5 0.1 13.7 20.9 28.2 73.6 61.6 209.9
Lameroo Aws 21 18:20 15.2 61 7.92 7.7 22 24 1013.1 0 18.1 24.4 36.5 95.5 87.9 302.0
Leigh Creek 21 18:20 20.2 22 3.85 -2.2 22 28 1010.9 0 9.3 17.6 20.7 53.6 38.0 127.1
Loxton 21 18:20 20.2 25 4.37 -0.5 15 20 1005.7 0 10.4 18.1 22.2 57.5 43.0 145.0
Marree Airport 21 18:20 22.2 17 3.34 -4 26 30 1011.6 0 8.2 16.6 18.8 48.4 32.2 106.8
Meningie 21 09:00 14.8 93 11.78 13.7 1004.3 0.4 26.4 30.6 52.2 137.6 140.0 484.1
Minlaton Airport 21 18:20 13.5 79 9.24 9.9 26 33 1006.2 0 21.0 26.8 42.2 111.0 106.8 367.8
Minnipa Rs 21 18:20 12.6 76 8.41 8.5 24 30 1010.8 0.8 19.2 25.8 39.5 103.7 97.2 334.1
Moomba Airport 21 18:20 22.6 19 3.82 -2.2 15 15 1011.5 0 9.2 17.1 20.1 51.9 36.6 122.6
Mount Barker 21 09:00 12.8 61 6.83 5.5 33 1013.1 5 15.9 23.4 33.3 87.2 76.7 262.5
Mount Crawford 21 18:20 10.7 81 7.96 7.6 43 56 1003.7 0 18.4 25.4 38.3 100.6 93.0 319.1
Mount Gambier 21 18:20 11.8 83 8.74 9 39 46 1001.5 1.6 20.0 26.3 40.9 107.4 101.9 350.6
Mount Lofty 21 18:20 8.6 90 7.74 7 30 43 1013.1 0 18.0 26.0 38.9 101.9 93.3 319.8
Murray Bridge 21 09:00 15.2 53 6.88 5.8 22 1013.1 9 15.9 22.8 32.5 85.1 75.0 256.8
Naracoorte 21 18:20 13.9 67 8.03 7.9 30 37 1002.8 0 18.4 24.6 37.0 97.2 90.0 309.3
Noarlunga 21 18:20 13.7 80 9.47 10.3 26 35 1013.1 0 21.5 27.3 43.4 114.1 110.2 379.8
Nullarbor 21 18:20 15.1 70 9.03 9.7 32 37 1014.9 0 20.4 26.3 40.9 107.5 102.5 353.1
Nuriootpa 21 18:20 13.3 73 8.43 8.6 32 39 1005.7 0.2 19.3 25.5 39.0 102.5 96.2 330.7
Oodnadatta 21 18:20 24 13 2.83 -6.1 24 28 1013 0 7.1 15.8 17.0 43.6 26.8 87.9
Padthaway 21 18:20 14.1 67 8.13 8.1 20 22 1013.1 0 18.6 25.1 37.8 99.1 91.9 315.7
Pallamana 21 18:20 15.7 51 6.82 5.8 24 32 1005.4 0 15.7 22.4 31.8 83.3 73.4 251.1
Parafield 21 18:20 14.9 70 8.92 9.5 32 43 1006.6 0 20.2 25.8 40.2 105.7 100.6 346.6
Parawa West 21 18:20 10.7 92 9.04 9.4 22 32 1013.1 0 20.7 27.6 43.2 113.6 108.5 373.5
Parndana 21 18:20 11.4 81 8.32 8.2 26 28 1013.1 2 19.1 26.1 39.9 104.6 97.7 335.7
Point Avoid 21 18:20 12.8 85 9.52 10.3 37 48 1013.1 2 21.6 27.7 44.1 115.9 112.2 386.6
Port Augusta 21 18:20 21 35 6.41 5 30 33 1008.2 0 14.7 20.6 28.6 74.6 64.3 219.8
Port Lincoln Airport 21 18:20 13.4 73 8.49 8.7 33 41 1006.1 1.2 19.4 25.6 39.2 103.1 96.9 333.2
Port Pirie Airport Aws 21 18:20 17.9 54 8.24 8.5 37 44 1008.1 0 18.6 24.0 36.2 95.1 88.5 304.5
Renmark Airport 21 18:20 19.8 27 4.61 0.3 22 26 1005.5 0 10.9 18.4 23.0 59.8 45.7 154.4
Robe Airport 21 18:20 13.2 82 9.42 10.2 37 50 1013.1 0.6 21.4 27.4 43.5 114.2 110.2 379.8
Roseworthy 21 18:20 14.8 70 8.87 9.4 24 30 1006.6 0.2 20.1 25.8 40.1 105.3 100.1 344.7
Roxby Downs 21 18:20 21.4 25 4.69 0.6 32 37 1010.8 0.2 11.1 18.4 23.0 59.7 45.9 155.1
Snowtown 21 18:20 12.6 87 9.63 10.5 28 35 1008 1.6 21.9 27.8 44.4 116.9 113.5 391.4
Stenhouse Bay 21 18:20 13.7 65 7.7 7.4 33 43 1013.1 0 17.7 24.5 36.3 95.1 86.8 297.9
Strathalbyn 21 18:20 13.5 66 7.72 7.3 32 35 1005.2 0 17.7 24.3 36.1 94.7 86.7 297.6
Streaky Bay 21 09:00 16 61 8.31 8.6 32 1007.2 0 18.9 24.6 37.3 98.0 91.5 314.7
Tarcoola 21 18:20 19.4 36 6.01 4 32 41 1012.9 0 13.9 20.6 27.9 72.8 61.4 209.3
Victor Harbor 21 09:00 15.3 65 8.49 8.8 26 1013.1 2 19.3 25.3 38.6 101.3 95.1 327.1
Warooka 21 09:00 14.7 56 7.05 6.2 44 1003.6 0.6 16.3 22.9 33.0 86.4 77.0 263.6
Whyalla 21 18:20 18.1 53 8.19 8.4 26 30 1008.5 0 18.5 23.9 36.0 94.4 87.7 301.7
Woomera 21 18:20 20 32 5.53 2.8 30 35 1010.4 0 12.9 19.7 26.1 67.9 55.6 189.0
Wudinna Airport 21 18:20 13.7 74 8.76 9.2 30 35 1009.9 0.2 19.9 26.1 40.3 105.9 100.4 345.4
Yunta 21 18:20 18.2 30 4.66 0.3 22 28 1013.1 0 11.1 19.1 23.9 61.9 47.5 160.3

Last Refresh: 21-Sep-2020 18:36:18

The information presented on this site is sourced from the Bureau of Meteorology.  Copyright in all material sourced from the Bureau of Meteorology resides with the Commonwealth of Australia.